Flight Track Log - Related Links

Times and Time Zones

All times are in EDT time to prevent confusion due to time zone crossing. See the UAL339 flight status page for this flight to view local times or setup timezone preferences in your user account.

Time Position Orientation Groundspeed Altitude Reporting Facility
EDT Latitude Longitude Course Direction KTS MPH feet Rate Location/Type
Tue 11:07:59 AM 33.9267 -118.4794 59° Northeast 211 243 2,600  Level Los Center
Tue 11:09:01 AM 33.8881 -118.5475 236° Southwest 239 275 5,500 2,565 Climbing Los Center
Tue 11:10:00 AM 34.1851 -117.9633 59° Northeast  Level FlightAware
Tue 11:10:03 AM 33.8350 -118.5081 148° Southeast 267 307 7,900  Level Los Center
Tue 11:11:00 AM 34.2519 -117.8388 51° Northeast  Level FlightAware
Tue 11:11:05 AM 33.8731 -118.4494 52° Northeast 275 316 9,900  Level Los Center
Tue 11:12:00 AM 34.3199 -117.7195 55° Northeast  Level FlightAware
Tue 11:12:07 AM 33.9600 -118.3922 29° Northeast 312 359 12,100  Level Los Center
Tue 11:13:00 AM 34.3921 -117.5991 59° Northeast  Level FlightAware
Tue 11:13:09 AM 34.0103 -118.2975 57° Northeast 330 380 14,300  Level Los Center
Tue 11:14:11 AM 34.0700 -118.1944 55° Northeast 366 421 16,400 2,032 Climbing Los Center
Tue 11:15:13 AM 34.1333 -118.0817 56° Northeast 399 459 18,500 1,984 Climbing Los Center
Tue 11:16:15 AM 34.2008 -117.9619 56° Northeast 425 489 20,500 1,742 Climbing Los Center
Tue 11:17:17 AM 34.2719 -117.8369 55° Northeast 446 513 22,100 1,645 Climbing Los Center
Tue 11:18:19 AM 34.3425 -117.7069 57° Northeast 459 528 23,900 1,597 Climbing Los Center
Tue 11:19:21 AM 34.4225 -117.5661 55° Northeast 477 549 25,400 1,355 Climbing Los Center
Tue 11:20:23 AM 34.5081 -117.4406 50° Northeast 485 558 26,700 1,210 Climbing Los Center
Tue 11:21:25 AM 34.6161 -117.2900 49° Northeast 497 572 27,900 1,210 Climbing Los Center
Tue 11:22:27 AM 34.7083 -117.1617 49° Northeast 506 582 29,200 1,210 Climbing Los Center
Tue 11:23:29 AM 34.7986 -117.0328 50° Northeast 506 582 30,400 871 Climbing Los Center
Tue 11:24:31 AM 34.8889 -116.9039 49° Northeast 505 581 31,000 774 Climbing Los Center
Tue 11:25:33 AM 34.9797 -116.7728 50° Northeast 507 583 32,000 968 Climbing Los Center
Tue 11:26:35 AM 35.0897 -116.6156 49° Northeast 512 589 33,000 484 Climbing Los Center
Tue 11:27:37 AM 35.1794 -116.4842 50° Northeast 508 585 33,000  Level Los Center
Tue 11:28:39 AM 35.2714 -116.3533 49° Northeast 508 585 33,000  Level Los Center
Tue 11:29:41 AM 35.3619 -116.2208 50° Northeast 509 586 33,000  Level Los Center
Tue 11:31:34 AM 35.5292 -115.9783 50° Northeast 512 589 33,000  Level Salt Center
Tue 11:32:47 AM 35.6508 -115.7819 53° Northeast 509 586 33,000  Level Los Center
Tue 11:33:49 AM 35.7275 -115.6375 57° Northeast 506 582 33,000  Level Los Center
Tue 11:34:51 AM 35.8011 -115.4922 58° Northeast 505 581 33,000 532 Level Los Center
Tue 11:35:53 AM 35.8739 -115.3497 58° Northeast 498 573 34,100 968 Climbing Los Center
Tue 11:36:55 AM 35.9447 -115.2100 58° Northeast 482 555 35,000 432 Climbing Los Center
Tue 11:37:58 AM 36.0292 -115.0383 59° Northeast 491 565 35,000  Level Los Center
Tue 11:39:00 AM 36.1022 -114.8950 58° Northeast 495 570 35,000  Level Los Center
Tue 11:40:02 AM 36.1744 -114.7511 58° Northeast 496 571 35,000  Level Los Center
Tue 11:41:04 AM 36.2472 -114.6075 58° Northeast 495 570 35,000  Level Los Center
Tue 11:42:06 AM 36.3181 -114.4631 59° Northeast 493 567 35,000  Level Los Center
Tue 11:43:08 AM 36.3892 -114.3217 58° Northeast 488 562 35,000  Level Los Center
Tue 11:44:10 AM 36.4722 -114.1517 59° Northeast 483 556 35,000  Level Los Center
Tue 11:45:12 AM 36.5408 -114.0125 58° Northeast 478 550 35,000  Level Los Center
Tue 11:46:14 AM 36.6092 -113.8736 58° Northeast 473 544 35,000  Level Los Center
Tue 11:47:29 AM 36.6936 -113.7028 58° Northeast 481 554 35,000  Level Los Center
Tue 11:48:31 AM 36.7614 -113.5617 59° Northeast 478 550 35,000  Level Los Center
Tue 11:49:33 AM 36.8422 -113.3914 59° Northeast 477 549 35,000  Level Los Center
Tue 11:50:35 AM 36.9106 -113.2483 59° Northeast 478 550 35,000  Level Los Center
Tue 11:51:37 AM 36.9783 -113.1064 59° Northeast 478 550 35,000  Level Los Center
Tue 11:52:40 AM 37.0450 -112.9644 59° Northeast 477 549 35,000  Level Los Center
Tue 11:53:42 AM 37.1114 -112.8217 60° Northeast 477 549 35,000  Level Los Center
Tue 11:54:44 AM 37.1925 -112.6519 59° Northeast 477 549 35,000  Level Los Center
Tue 11:55:46 AM 37.2578 -112.5089 60° Northeast 478 550 35,000  Level Los Center
Tue 11:56:48 AM 37.3247 -112.3664 59° Northeast 478 550 35,000  Level Los Center
Tue 11:57:50 AM 37.3917 -112.2231 60° Northeast 479 551 35,000  Level Los Center
Tue 11:58:27 AM 37.4317 -112.1372 60° Northeast 479 551 35,000  Level Salt Center
Tue 11:59:29 AM 37.5117 -111.9628 60° Northeast 482 555 35,000  Level Salt Center
Tue 12:00:31 PM 37.5778 -111.8183 60° Northeast 480 552 35,000  Level Salt Center
Tue 12:01:04 PM 37.6050 -111.7603 59° Northeast 479 551 35,000  Level Denver Center
Tue 12:02:06 PM 37.6856 -111.5864 60° Northeast 480 552 35,000  Level Denver Center
Tue 12:03:08 PM 37.7517 -111.4406 60° Northeast 481 554 35,000  Level Denver Center
Tue 12:04:10 PM 37.8178 -111.2942 60° Northeast 481 554 35,000  Level Denver Center
Tue 12:05:12 PM 37.8836 -111.1464 61° Northeast 484 557 35,000  Level Denver Center
Tue 12:06:14 PM 37.9492 -111.0006 60° Northeast 480 552 35,000  Level Denver Center
Tue 12:07:16 PM 38.0272 -110.8264 60° Northeast 480 552 35,000  Level Denver Center
Tue 12:08:18 PM 38.0892 -110.6850 61° Northeast 480 552 35,000  Level Denver Center
Tue 12:09:20 PM 38.1622 -110.5206 60° Northeast 479 551 35,000  Level Denver Center
Tue 12:10:23 PM 38.2247 -110.3800 60° Northeast 478 550 35,000  Level Denver Center
Tue 12:11:25 PM 38.2964 -110.2156 61° Northeast 477 549 35,000  Level Denver Center
Tue 12:12:27 PM 38.3569 -110.0739 61° Northeast 476 548 35,000  Level Denver Center
Tue 12:13:29 PM 38.4175 -109.9333 61° Northeast 475 547 35,000  Level Denver Center
Tue 12:14:31 PM 38.4886 -109.7681 61° Northeast 477 549 35,000  Level Denver Center
Tue 12:15:33 PM 38.5478 -109.6281 62° Northeast 472 543 35,000  Level Denver Center
Tue 12:16:35 PM 38.6175 -109.4617 62° Northeast 478 550 35,000  Level Denver Center
Tue 12:17:37 PM 38.6778 -109.3228 61° Northeast 468 539 35,000  Level Denver Center
Tue 12:18:39 PM 38.7481 -109.1592 61° Northeast 470 541 35,000  Level Denver Center
Tue 12:19:41 PM 38.8056 -109.0192 62° Northeast 467 537 35,000  Level Denver Center
Tue 12:20:43 PM 38.8744 -108.8556 62° Northeast 467 537 35,000  Level Denver Center
Tue 12:21:45 PM 38.9322 -108.7167 62° Northeast 464 534 35,000  Level Denver Center
Tue 12:22:47 PM 39.0006 -108.5544 62° Northeast 463 533 35,000  Level Denver Center
Tue 12:23:50 PM 39.0575 -108.4100 63° Northeast 473 544 35,000  Level Denver Center
Tue 12:24:52 PM 39.1275 -108.2428 62° Northeast 480 552 35,000  Level Denver Center
Tue 12:25:54 PM 39.1847 -108.1036 62° Northeast 464 534 35,000  Level Denver Center
Tue 12:26:56 PM 39.2517 -107.9400 62° Northeast 464 534 35,000  Level Denver Center
Tue 12:27:58 PM 39.3069 -107.7983 63° Northeast 464 534 35,000  Level Denver Center
Tue 12:29:00 PM 39.3733 -107.6342 62° Northeast 463 533 35,000  Level Denver Center
Tue 12:30:02 PM 39.4286 -107.4956 63° Northeast 456 525 35,000  Level Denver Center
Tue 12:31:04 PM 39.4925 -107.3311 63° Northeast 457 526 35,000  Level Denver Center
Tue 12:32:06 PM 39.5489 -107.1925 62° Northeast 457 526 35,000  Level Denver Center
Tue 12:33:08 PM 39.6128 -107.0311 63° Northeast 430 495 35,000  Level Denver Center
Tue 12:34:10 PM 39.6686 -106.8892 63° Northeast 454 522 35,000  Level Denver Center
Tue 12:35:12 PM 39.7311 -106.7286 63° Northeast 451 519 35,000  Level Denver Center
Tue 12:36:14 PM 39.7867 -106.5828 64° Northeast 448 516 35,000  Level Denver Center
Tue 12:37:16 PM 39.8378 -106.4528 63° Northeast 447 514 35,000  Level Denver Center
Tue 12:38:18 PM 39.9058 -106.2789 63° Northeast 449 517 35,000  Level Denver Center
Tue 12:39:21 PM 39.9603 -106.1336 64° Northeast 447 514 35,000  Level Denver Center
Tue 12:40:23 PM 40.0169 -105.9875 63° Northeast 449 517 35,000  Level Denver Center
Tue 12:41:25 PM 40.0644 -105.8378 67° East 448 516 35,000  Level Denver Center
Tue 12:42:27 PM 40.0997 -105.6781 74° East 457 526 35,000  Level Denver Center
Tue 12:43:29 PM 40.1322 -105.5206 75° East 450 518 35,000  Level Denver Center
Tue 12:44:31 PM 40.1706 -105.3336 75° East 444 511 35,000  Level Denver Center
Tue 12:45:33 PM 40.2039 -105.1756 75° East 450 518 35,000  Level Denver Center
Tue 12:46:35 PM 40.2356 -105.0181 75° East 448 516 35,000  Level Denver Center
Tue 12:47:37 PM 40.2681 -104.8606 75° East 446 513 35,000  Level Denver Center
Tue 12:48:39 PM 40.3008 -104.7000 75° East 455 524 35,000  Level Denver Center
Tue 12:49:41 PM 40.3306 -104.5419 76° East 448 516 35,000  Level Denver Center
Tue 12:50:43 PM 40.3611 -104.3822 76° East 450 518 35,000  Level Denver Center
Tue 12:51:45 PM 40.3972 -104.1928 76° East 444 511 35,000  Level Denver Center
Tue 12:52:47 PM 40.4281 -104.0344 76° East 448 516 35,000  Level Denver Center
Tue 12:53:50 PM 40.4589 -103.8758 76° East 445 512 35,000  Level Denver Center
Tue 12:54:52 PM 40.4892 -103.7189 76° East 441 507 35,000  Level Denver Center
Tue 12:55:54 PM 40.5200 -103.5572 76° East 453 521 35,000  Level Denver Center
Tue 12:56:56 PM 40.5497 -103.3969 76° East 452 520 35,000  Level Denver Center
Tue 12:57:58 PM 40.5853 -103.2031 76° East 455 524 35,000  Level Denver Center
Tue 12:59:00 PM 40.6172 -103.0428 75° East 455 524 35,000  Level Denver Center
Tue 01:00:02 PM 40.6475 -102.8828 76° East 451 519 35,000  Level Denver Center
Tue 01:01:04 PM 40.6758 -102.7208 77° East 454 522 35,000  Level Denver Center
Tue 01:02:06 PM 40.7039 -102.5586 77° East 453 521 35,000  Level Denver Center
Tue 01:03:08 PM 40.7361 -102.3781 77° East 454 522 35,000  Level Denver Center
Tue 01:04:10 PM 40.7639 -102.2231 77° East 454 522 35,000  Level Denver Center
Tue 01:05:12 PM 40.7950 -102.0422 77° East 453 521 35,000  Level Denver Center
Tue 01:06:14 PM 40.8217 -101.8878 77° East 451 519 35,000  Level Denver Center
Tue 01:07:16 PM 40.8542 -101.7064 77° East 454 522 35,000  Level Denver Center
Tue 01:08:18 PM 40.8806 -101.5514 77° East 453 521 35,000  Level Denver Center
Tue 01:09:20 PM 40.9103 -101.3689 78° East 453 521 35,000  Level Denver Center
Tue 01:10:23 PM 40.9375 -101.2122 77° East 455 524 35,000  Level Denver Center
Tue 01:11:25 PM 40.9686 -101.0294 77° East 455 524 35,000  Level Denver Center
Tue 01:12:27 PM 40.9961 -100.8717 77° East 454 522 35,000  Level Denver Center
Tue 01:13:29 PM 41.0225 -100.7103 78° East 458 527 35,000  Level Denver Center
Tue 01:14:31 PM 41.0517 -100.5236 78° East 459 528 35,000  Level Denver Center
Tue 01:15:33 PM 41.0761 -100.3667 78° East 454 522 35,000  Level Denver Center
Tue 01:16:35 PM 41.1044 -100.1833 78° East 454 522 35,000  Level Denver Center
Tue 01:17:37 PM 41.1294 -100.0256 78° East 456 525 35,000  Level Denver Center
Tue 01:18:39 PM 41.1581 -99.8406 78° East 457 526 35,000  Level Denver Center
Tue 01:19:41 PM 41.1831 -99.6825 78° East 457 526 35,000  Level Denver Center
Tue 01:20:43 PM 41.2069 -99.5231 79° East 460 529 35,000  Level Denver Center
Tue 01:21:45 PM 41.2336 -99.3461 79° East 460 529 35,000  Level Denver Center
Tue 01:22:47 PM 41.2586 -99.1778 79° East 461 531 35,000  Level Denver Center
Tue 01:23:49 PM 41.2864 -98.9911 79° East 461 531 35,000  Level Denver Center
Tue 01:24:52 PM 41.3103 -98.8394 78° East 460 529 35,000  Level Denver Center
Tue 01:25:54 PM 41.3339 -98.6681 80° East 462 532 35,000  Level Denver Center
Tue 01:26:56 PM 41.3606 -98.4678 80° East 456 525 35,000  Level Denver Center
Tue 01:28:25 PM 41.3961 -98.2361 78° East 457 526 35,000  Level Minneapolis Center
Tue 01:29:27 PM 41.4247 -98.0703 77° East 454 522 35,000  Level Minneapolis Center
Tue 01:30:30 PM 41.4514 -97.9075 78° East 451 519 35,000  Level Minneapolis Center
Tue 01:31:32 PM 41.4789 -97.7442 77° East 452 520 35,000  Level Minneapolis Center
Tue 01:32:34 PM 41.5108 -97.5469 78° East 454 522 35,000  Level Minneapolis Center
Tue 01:33:36 PM 41.5386 -97.3825 77° East 455 524 35,000  Level Minneapolis Center
Tue 01:34:38 PM 41.5656 -97.2183 78° East 454 522 35,000  Level Minneapolis Center
Tue 01:35:40 PM 41.5911 -97.0531 78° East 454 522 35,000  Level Minneapolis Center
Tue 01:36:42 PM 41.6156 -96.8878 79° East 453 521 35,000  Level Minneapolis Center
Tue 01:37:45 PM 41.6419 -96.7211 78° East 457 526 35,000  Level Minneapolis Center
Tue 01:38:47 PM 41.6664 -96.5556 79° East 454 522 35,000  Level Minneapolis Center
Tue 01:39:49 PM 41.6972 -96.3547 78° East 457 526 35,000  Level Minneapolis Center
Tue 01:40:51 PM 41.7225 -96.1872 79° East 457 526 35,000  Level Minneapolis Center
Tue 01:41:53 PM 41.7489 -96.0200 78° East 456 525 35,000  Level Minneapolis Center
Tue 01:42:55 PM 41.7725 -95.8506 79° East 457 526 35,000  Level Minneapolis Center
Tue 01:43:57 PM 41.7967 -95.6825 79° East 456 525 35,000  Level Minneapolis Center
Tue 01:44:59 PM 41.8200 -95.5139 79° East 458 527 35,000  Level Minneapolis Center
Tue 01:46:01 PM 41.8433 -95.3464 79° East 457 526 35,000 240 Level Minneapolis Center
Tue 01:47:04 PM 41.8711 -95.1461 79° East 456 525 35,500 480 Climbing Minneapolis Center
Tue 01:48:06 PM 41.8942 -94.9833 79° East 446 513 36,000 484 Climbing Minneapolis Center
Tue 01:49:08 PM 41.9158 -94.8186 80° East 447 514 36,500 484 Climbing Minneapolis Center
Tue 01:50:10 PM 41.9392 -94.6556 79° East 446 513 37,000 242 Climbing Minneapolis Center
Tue 01:51:12 PM 41.9611 -94.4906 80° East 448 516 37,000  Level Minneapolis Center
Tue 01:52:14 PM 41.9831 -94.3256 80° East 449 517 37,000  Level Minneapolis Center
Tue 01:53:16 PM 42.0056 -94.1603 80° East 449 517 37,000  Level Minneapolis Center
Tue 01:54:18 PM 42.0303 -93.9614 80° East 449 517 37,000  Level Minneapolis Center
Tue 01:55:20 PM 42.0486 -93.8186 80° East 450 518 37,000  Level Minneapolis Center
Tue 01:56:22 PM 42.0736 -93.6225 80° East 448 516 37,000  Level Minneapolis Center
Tue 01:57:24 PM 42.0939 -93.4594 80° East 447 514 37,000  Level Minneapolis Center
Tue 01:58:27 PM 42.1142 -93.2961 80° East 446 513 37,000  Level Minneapolis Center
Tue 01:59:41 PM 42.1364 -93.0989 81° East 449 517 37,000  Level Minneapolis Center
Tue 02:00:43 PM 42.1600 -92.9011 81° East 449 517 37,000  Level Minneapolis Center
Tue 02:01:18 PM 42.1686 -92.8364 80° East 447 514 37,000  Level Chicago Center
Tue 02:02:20 PM 42.1914 -92.6392 81° East 449 517 37,000  Level Chicago Center
Tue 02:03:22 PM 42.2106 -92.4772 81° East 447 514 37,000  Level Chicago Center
Tue 02:04:24 PM 42.2292 -92.3142 81° East 445 512 37,000  Level Chicago Center
Tue 02:05:26 PM 42.2472 -92.1553 81° East 439 505 37,000  Level Chicago Center
Tue 02:06:29 PM 42.2689 -91.9633 81° East 437 503 37,000  Level Chicago Center
Tue 02:07:31 PM 42.2856 -91.8047 82° East 437 503 37,000  Level Chicago Center
Tue 02:08:33 PM 42.3031 -91.6456 81° East 437 503 37,000  Level Chicago Center
Tue 02:10:14 PM 42.3331 -91.3583 82° East 438 504 37,000  Level Minneapolis Center
Tue 02:11:17 PM 42.3497 -91.1972 82° East 439 505 37,000  Level Minneapolis Center
Tue 02:12:19 PM 42.3667 -91.0381 82° East 438 504 37,000  Level Minneapolis Center
Tue 02:13:43 PM 42.3906 -90.8125 82° East 442 509 37,000  Level Chicago Center
Tue 02:14:45 PM 42.3956 -90.6178 88° East 440 506 37,000  Level Chicago Center
Tue 02:15:47 PM 42.3853 -90.4556 95° East 438 504 37,000  Level Chicago Center
Tue 02:16:49 PM 42.3761 -90.2919 94° East 441 507 37,000  Level Chicago Center
Tue 02:17:51 PM 42.3672 -90.1294 94° East 437 503 37,000  Level Chicago Center
Tue 02:18:53 PM 42.3572 -89.9658 95° East 439 505 37,000  Level Chicago Center
Tue 02:19:56 PM 42.3475 -89.7883 94° East 441 507 37,000  Level Chicago Center
Tue 02:20:58 PM 42.3358 -89.5967 95° East 441 507 37,000  Level Chicago Center
Tue 02:22:00 PM 42.3258 -89.4317 95° East 442 509 37,000  Level Chicago Center
Tue 02:23:02 PM 42.3150 -89.2656 95° East 444 511 37,000  Level Chicago Center
Tue 02:24:04 PM 42.3047 -89.1036 95° East 438 504 37,000  Level Chicago Center
Tue 02:25:06 PM 42.2931 -88.9378 95° East 443 510 37,000  Level Chicago Center
Tue 02:26:08 PM 42.2808 -88.7522 95° East 447 514 37,000  Level Chicago Center
Tue 02:27:10 PM 42.2681 -88.5869 96° East 445 512 37,000  Level Chicago Center
Tue 02:28:12 PM 42.2556 -88.4228 96° East 442 509 37,000  Level Chicago Center
Tue 02:29:14 PM 42.2553 -88.2575 90° East 450 518 37,000  Level Chicago Center
Tue 02:30:16 PM 42.2728 -88.0569 83° East 451 519 37,000  Level Chicago Center
Tue 02:31:18 PM 42.2833 -87.8889 85° East 450 518 37,000  Level Chicago Center
Tue 02:32:21 PM 42.3003 -87.7239 82° East 448 516 37,000  Level Chicago Center
Tue 02:33:23 PM 42.3153 -87.5572 83° East 449 517 37,000  Level Chicago Center
Tue 02:34:25 PM 42.3300 -87.3919 83° East 446 513 37,000  Level Chicago Center
Tue 02:35:27 PM 42.3475 -87.1931 83° East 446 513 37,000  Level Chicago Center
Tue 02:36:29 PM 42.3617 -87.0278 83° East 444 511 37,000  Level Chicago Center
Tue 02:37:31 PM 42.3764 -86.8644 83° East 442 509 37,000  Level Chicago Center
Tue 02:38:33 PM 42.3908 -86.7000 83° East 443 510 37,000  Level Chicago Center
Tue 02:39:35 PM 42.4047 -86.5347 83° East 449 517 37,000  Level Chicago Center
Tue 02:40:37 PM 42.4183 -86.3689 84° East 448 516 37,000  Level Chicago Center
Tue 02:41:39 PM 42.4342 -86.1694 84° East 448 516 37,000  Level Chicago Center
Tue 02:42:41 PM 42.4469 -86.0022 84° East 452 520 37,000  Level Chicago Center
Tue 02:43:43 PM 42.4603 -85.8342 84° East 454 522 37,000  Level Chicago Center
Tue 02:44:46 PM 42.4742 -85.6650 84° East 456 525 37,000  Level Chicago Center
Tue 02:45:48 PM 42.4886 -85.4947 83° East 459 528 37,000  Level Chicago Center
Tue 02:46:50 PM 42.5031 -85.2894 84° East 460 529 37,000  Level Chicago Center
Tue 02:47:52 PM 42.5150 -85.1183 85° East 458 527 37,000  Level Chicago Center
Tue 02:48:54 PM 42.5325 -84.9497 82° East 455 524 37,000  Level Chicago Center
Tue 02:49:56 PM 42.5556 -84.7806 79° East 458 527 37,000  Level Chicago Center
Tue 02:50:58 PM 42.5758 -84.6133 81° East 454 522 37,000  Level Chicago Center
Tue 02:52:00 PM 42.6033 -84.4108 79° East 455 524 37,000  Level Chicago Center
Tue 02:53:02 PM 42.6267 -84.2425 79° East 457 526 37,000  Level Chicago Center
Tue 02:54:04 PM 42.6503 -84.0736 79° East 457 526 37,000  Level Chicago Center
Tue 02:55:06 PM 42.6708 -83.9044 81° East 456 525 37,000  Level Chicago Center
Tue 02:56:22 PM 42.6836 -83.6675 86° East 453 521 37,000  Level Cleveland Center
Tue 02:57:22 PM 42.6964 -83.4986 84° East 453 521 37,000  Level Cleveland Center
Tue 02:58:22 PM 42.7006 -83.3208 88° East 458 527 37,000  Level Cleveland Center
Tue 02:59:22 PM 42.7108 -83.1489 85° East 458 527 37,000  Level Cleveland Center
Tue 03:00:22 PM 42.7167 -82.9739 87° East 458 527 37,000  Level Cleveland Center
Tue 03:01:22 PM 42.7242 -82.8075 86° East 458 527 37,000  Level Cleveland Center
Tue 03:02:22 PM 42.7317 -82.6297 87° East 458 527 37,000  Level Cleveland Center
Tue 03:03:22 PM 42.7367 -82.4603 88° East 458 527 37,000  Level Cleveland Center
Tue 03:04:22 PM 42.7436 -82.2850 87° East 458 527 37,000  Level Cleveland Center
Tue 03:05:22 PM 42.7503 -82.1100 87° East 458 527 37,000  Level Cleveland Center
Tue 03:06:22 PM 42.7567 -81.9347 87° East 458 527 37,000  Level Cleveland Center
Tue 03:07:22 PM 42.7625 -81.7822 87° East 451 519 37,000  Level Cleveland Center
Tue 03:08:22 PM 42.7683 -81.6069 87° East 458 527 37,000  Level Cleveland Center
Tue 03:09:22 PM 42.7739 -81.4119 88° East 458 527 37,000  Level Cleveland Center
Tue 03:10:22 PM 42.7792 -81.2367 88° East 458 527 37,000  Level Cleveland Center
Tue 03:11:22 PM 42.7822 -81.0583 89° East 463 533 37,000  Level Cleveland Center
Tue 03:12:22 PM 42.7892 -80.8831 87° East 463 533 37,000  Level Cleveland Center
Tue 03:13:22 PM 42.7936 -80.7078 88° East 456 525 37,000  Level Cleveland Center
Tue 03:14:22 PM 42.7978 -80.5350 88° East 456 525 37,000  Level Cleveland Center
Tue 03:15:22 PM 42.7997 -80.3597 89° East 461 531 37,000  Level Cleveland Center
Tue 03:16:22 PM 42.8056 -80.1842 87° East 461 531 37,000  Level Cleveland Center
Tue 03:17:22 PM 42.8047 -80.0228 90° East 461 531 37,000  Level Cleveland Center
Tue 03:18:22 PM 42.8142 -79.8503 86° East 461 531 37,000  Level Cleveland Center
Tue 03:19:22 PM 42.8153 -79.6775 89° East 461 531 37,000  Level Cleveland Center
Tue 03:20:22 PM 42.8178 -79.5019 89° East 461 531 37,000  Level Cleveland Center
Tue 03:21:22 PM 42.8203 -79.3292 89° East 456 525 37,000  Level Cleveland Center
Tue 03:23:22 PM 42.8200 -78.9756 90° East 456 525 37,000  Level Cleveland Center
Tue 03:24:22 PM 42.8217 -78.8028 89° East 456 525 37,000  Level Cleveland Center
Tue 03:25:22 PM 42.8231 -78.6300 89° East 456 525 37,000  Level Cleveland Center
Tue 03:26:22 PM 42.8261 -78.4572 89° East 456 525 37,000  Level Cleveland Center
Tue 03:27:22 PM 42.8250 -78.2817 90° East 456 525 37,000  Level Cleveland Center
Tue 03:28:22 PM 42.8275 -78.1061 89° East 456 525 37,000  Level Cleveland Center
Tue 03:29:22 PM 42.8258 -77.9306 91° East 456 525 37,000  Level Cleveland Center
Tue 03:30:22 PM 42.8275 -77.7353 89° East 461 531 37,000  Level Cleveland Center
Tue 03:31:22 PM 42.8292 -77.5567 89° East 461 531 37,000  Level Cleveland Center
Tue 03:33:28 PM 42.8217 -77.2050 92° East 464 534 37,000  Level Boston Center
Tue 03:34:28 PM 42.8206 -77.0294 90° East 459 528 37,000  Level Boston Center
Tue 03:35:28 PM 42.8172 -76.8508 91° East 464 534 37,000  Level Boston Center
Tue 03:36:28 PM 42.8156 -76.6750 91° East 464 534 37,000  Level Boston Center
Tue 03:37:28 PM 42.8142 -76.4825 90° East 464 534 37,000  Level Boston Center
Tue 03:38:28 PM 42.8119 -76.3039 91° East 464 534 37,000  Level Boston Center
Tue 03:39:28 PM 42.8097 -76.1253 91° East 464 534 37,000 -50 Level Boston Center
Tue 03:40:28 PM 42.8069 -75.9469 91° East 464 534 36,900 -50 Descending Boston Center
Tue 03:41:28 PM 42.8019 -75.7683 92° East 464 534 36,900 50 Level Boston Center
Tue 03:42:28 PM 42.7981 -75.6067 92° East 469 540 37,000  Climbing Boston Center
Tue 03:43:28 PM 42.7947 -75.4311 91° East 469 540 36,900  Descending Boston Center
Tue 03:44:28 PM 42.7889 -75.2469 92° East 474 545 37,000  Climbing Boston Center
Tue 03:45:28 PM 42.7847 -75.0711 92° East 474 545 36,900  Descending Boston Center
Tue 03:46:28 PM 42.7783 -74.8956 93° East 474 545 37,000 50 Climbing Boston Center
Tue 03:47:28 PM 42.7736 -74.7142 92° East 474 545 37,000  Level Boston Center
Tue 03:48:28 PM 42.7708 -74.5389 91° East 474 545 37,000 -50 Level Boston Center
Tue 03:49:28 PM 42.7650 -74.3972 93° East 474 545 36,900  Descending Boston Center
Tue 03:50:28 PM 42.7600 -74.1850 92° East 469 540 37,000  Climbing Boston Center
Tue 03:51:28 PM 42.7544 -74.0067 92° East 469 540 36,900 -50 Descending Boston Center
Tue 03:52:28 PM 42.7442 -73.8283 94° East 469 540 36,900 50 Level Boston Center
Tue 03:53:28 PM 42.7336 -73.6583 95° East 463 533 37,000 50 Climbing Boston Center
Tue 03:54:28 PM 42.7144 -73.4828 98° East 458 527 37,000  Level Boston Center
Tue 03:55:28 PM 42.6972 -73.3044 97° East 465 535 37,000 -50 Level Boston Center
Tue 03:56:28 PM 42.6797 -73.1292 98° East 465 535 36,900 -1,150 Descending Boston Center
Tue 03:57:28 PM 42.6556 -72.9397 100° East 477 549 34,700 -2,800 Descending Boston Center
Tue 03:58:28 PM 42.6356 -72.7561 98° East 490 564 31,300 -3,850 Descending Boston Center
Tue 03:59:28 PM 42.6150 -72.5642 98° East 490 564 27,000 -3,850 Descending Boston Center
Tue 04:00:28 PM 42.5881 -72.3864 102° East 507 583 23,600 -3,250 Descending Boston Center
Tue 04:01:28 PM 42.5647 -72.2061 100° East 501 577 20,500 -3,250 Descending Boston Center
Tue 04:02:28 PM 42.5414 -72.0231 100° East 455 524 17,100 -3,150 Descending Boston Center
Tue 04:03:28 PM 42.5281 -71.8625 96° East 442 509 14,200 -2,900 Descending Boston Center
Tue 04:04:28 PM 42.5128 -71.7106 98° East 416 479 11,300 -1,650 Descending Boston Center
Tue 04:05:28 PM 42.5014 -71.5839 97° East 379 436 10,900 -700 Descending Boston Center
Tue 04:06:28 PM 42.4900 -71.4489 96° East 340 391 9,900 -900 Descending Boston Center
Tue 04:07:28 PM 42.4786 -71.3478 99° East 307 353 9,100 -950 Descending Boston Center
Tue 04:08:28 PM 42.4689 -71.2328 96° East 289 333 8,000 -800 Descending Boston Center
Tue 04:09:28 PM 42.4575 -71.1372 99° East 289 333 7,500 -950 Descending Boston Center
Tue 04:10:28 PM 42.4333 -71.0250 106° East 284 327 6,100 -750 Descending Boston Center
Tue 04:11:28 PM 42.3783 -70.9703 144° Southeast 259 298 6,000 -50 Descending Boston Center
Tue 04:12:28 PM 42.3008 -70.9383 163° South 287 330 6,000 -550 Level Boston Center
Tue 04:13:28 PM 42.2158 -70.9739 197° South 293 337 4,900 -1,150 Descending Boston Center
Tue 04:14:28 PM 42.1539 -71.0092 203° Southwest 293 337 3,700 -950 Descending Boston Center
Tue 04:15:28 PM 42.1692 -71.0844 285° West 198 228 3,000 -500 Descending Boston Center
Tue 04:16:28 PM 42.2192 -71.0719 10° North 124 143 2,700 -300 Descending Boston Center

Login

Don't have an account? Register now (free) for customized features, flight alerts, and more!